Time;durP1;ratioP1;P1;durP2;ratioP2;P2;SDS_P1;SDS_P2;PMS_P1;PMS_P2;Temp;Humidity;BMP_temperature;BMP_pressure;BME280_temperature;BME280_humidity;BME280_pressure;Samples;Min_cycle;Max_cycle;Signal;HPM_P1;HPM_P2
2023/07/21 00:01:03;;;;;;;;;1.00;0.00;;;;;20.55;43.53;100738.97;5037067;28;45479;-67
2023/07/21 00:03:30;;;;;;;;;1.00;1.00;;;;;20.48;43.81;100726.06;5031101;28;45275;-68
2023/07/21 00:05:55;;;;;;;;;3.25;1.00;;;;;20.52;43.67;100732.03;5036129;28;46249;-68
2023/07/21 00:08:21;;;;;;;;;3.00;2.25;;;;;20.49;43.38;100727.78;5032527;28;45601;-68
2023/07/21 00:10:46;;;;;;;;;1.50;1.50;;;;;20.49;43.44;100726.94;5033146;28;45321;-68
2023/07/21 00:13:12;;;;;;;;;1.75;1.50;;;;;20.46;43.56;100722.66;5034388;28;45407;-68
2023/07/21 00:15:38;;;;;;;;;1.00;1.00;;;;;20.47;43.61;100723.53;5021367;28;45469;-68
2023/07/21 00:18:03;;;;;;;;;3.25;1.50;;;;;20.43;43.49;100720.25;5031295;28;66230;-68
2023/07/21 00:20:29;;;;;;;;;2.00;1.25;;;;;20.41;44.11;100714.16;5014323;28;45361;-68
2023/07/21 00:22:55;;;;;;;;;1.25;1.00;;;;;20.42;43.73;100717.69;5031097;28;45431;-68
2023/07/21 00:25:20;;;;;;;;;1.50;1.50;;;;;20.44;43.74;100713.97;5026905;28;46107;-68
2023/07/21 00:27:46;;;;;;;;;3.00;1.25;;;;;20.44;43.34;100711.31;5034648;28;45237;-68
2023/07/21 00:30:12;;;;;;;;;2.00;1.75;;;;;20.46;43.49;100711.19;5026268;28;45956;-68
2023/07/21 00:32:39;;;;;;;;;2.00;1.00;;;;;20.46;43.25;100705.88;5035467;28;45473;-68
2023/07/21 00:35:08;;;;;;;;;1.75;1.00;;;;;20.42;43.63;100702.59;5020342;28;47141;-68
2023/07/21 00:37:37;;;;;;;;;2.50;2.00;;;;;20.41;43.70;100706.19;5021156;28;45836;-68
2023/07/21 00:40:04;;;;;;;;;1.25;1.25;;;;;20.41;43.57;100706.19;5032157;28;45240;-68
2023/07/21 00:42:30;;;;;;;;;3.00;1.00;;;;;20.44;43.41;100716.63;5022083;28;45249;-68
2023/07/21 00:44:59;;;;;;;;;3.25;2.25;;;;;20.43;43.60;100722.03;5039420;28;46392;-68
2023/07/21 00:47:24;;;;;;;;;2.25;1.00;;;;;20.41;43.91;100734.59;5039841;28;45784;-68
2023/07/21 00:49:50;;;;;;;;;1.00;1.00;;;;;20.35;43.74;100733.19;5020796;28;45517;-68
2023/07/21 00:52:18;;;;;;;;;1.00;1.00;;;;;20.33;43.88;100728.94;5040411;28;45167;-68
2023/07/21 00:54:44;;;;;;;;;1.50;1.00;;;;;20.32;44.03;100722.78;5023752;28;46065;-68
2023/07/21 00:57:09;;;;;;;;;1.00;1.00;;;;;20.35;43.80;100717.25;5038655;28;45217;-68
2023/07/21 00:59:34;;;;;;;;;1.00;1.00;;;;;20.38;43.62;100710.88;5028120;28;49581;-68
2023/07/21 01:02:00;;;;;;;;;4.50;3.00;;;;;20.42;43.65;100715.88;5022777;28;45479;-68
2023/07/21 01:04:26;;;;;;;;;1.50;1.00;;;;;20.41;43.31;100700.88;5026796;28;47071;-68
2023/07/21 01:06:52;;;;;;;;;1.00;1.00;;;;;20.40;42.97;100708.97;5037048;28;49525;-68
2023/07/21 01:09:19;;;;;;;;;4.50;1.50;;;;;20.36;43.30;100708.34;5031658;28;45360;-68
2023/07/21 01:11:44;;;;;;;;;2.50;1.50;;;;;20.35;43.46;100711.94;5030781;28;45453;-68
2023/07/21 01:14:09;;;;;;;;;1.00;0.75;;;;;20.37;43.58;100702.03;5038326;28;46547;-68
2023/07/21 01:16:37;;;;;;;;;2.00;2.00;;;;;20.39;43.64;100710.75;5023643;28;56783;-68
2023/07/21 01:19:04;;;;;;;;;2.00;2.00;;;;;20.40;43.77;100716.94;5037494;28;45335;-68
2023/07/21 01:21:43;;;;;;;;;1.50;1.50;;;;;20.37;43.83;100717.16;5040716;28;45314;-68
2023/07/21 01:24:22;;;;;;;;;5.50;1.00;;;;;20.34;44.03;100722.66;5021352;28;47120;-68
2023/07/21 01:26:49;;;;;;;;;2.00;1.00;;;;;20.23;44.37;100716.28;5023590;28;45200;-68
2023/07/21 01:29:16;;;;;;;;;2.75;1.75;;;;;20.19;44.90;100727.22;5030212;28;57951;-68
2023/07/21 01:31:42;;;;;;;;;1.00;1.00;;;;;20.10;45.35;100726.88;5034582;28;45502;-68
2023/07/21 01:34:09;;;;;;;;;1.00;1.00;;;;;20.00;45.47;100716.97;5022218;28;68187;-68
2023/07/21 01:36:36;;;;;;;;;2.00;1.25;;;;;19.96;45.67;100720.81;5040359;28;45289;-68
2023/07/21 01:39:03;;;;;;;;;2.50;2.00;;;;;19.88;45.64;100719.50;5038907;28;45272;-68
2023/07/21 01:41:29;;;;;;;;;3.25;2.00;;;;;19.85;46.46;100719.72;5037127;28;45297;-68
2023/07/21 01:43:55;;;;;;;;;2.50;1.75;;;;;19.83;46.69;100723.41;5035946;28;45268;-68
2023/07/21 01:46:21;;;;;;;;;3.50;2.50;;;;;19.80;46.44;100713.00;5034939;28;45416;-68
2023/07/21 01:48:47;;;;;;;;;2.00;2.00;;;;;19.71;46.89;100712.63;5026805;28;45371;-68
2023/07/21 01:51:15;;;;;;;;;2.00;2.00;;;;;19.64;47.02;100706.00;5035028;28;45351;-68
2023/07/21 01:53:41;;;;;;;;;3.00;3.00;;;;;19.59;47.80;100702.81;5039378;28;46407;-68
2023/07/21 01:56:12;;;;;;;;;2.75;2.00;;;;;19.53;47.77;100703.22;5037213;28;45375;-68
2023/07/21 01:58:38;;;;;;;;;2.00;2.00;;;;;19.50;47.95;100692.78;5019241;28;45359;-68
2023/07/21 02:01:05;;;;;;;;;1.00;1.00;;;;;19.47;48.18;100693.81;5037400;28;45365;-68
2023/07/21 02:03:31;;;;;;;;;2.00;2.00;;;;;19.39;47.74;100688.19;5038819;28;46130;-68
2023/07/21 02:05:56;;;;;;;;;3.00;1.50;;;;;19.30;48.04;100689.63;5021062;28;71191;-68
2023/07/21 02:08:21;;;;;;;;;2.00;2.00;;;;;19.27;48.42;100695.13;5039642;28;45271;-68
2023/07/21 02:10:47;;;;;;;;;1.25;0.75;;;;;19.24;48.22;100691.81;5039614;28;45230;-68
2023/07/21 02:13:14;;;;;;;;;1.75;1.00;;;;;19.21;48.53;100702.63;5031674;28;45496;-68
2023/07/21 02:15:40;;;;;;;;;2.50;1.00;;;;;19.13;48.81;100700.47;5035291;28;45691;-68
2023/07/21 02:18:07;;;;;;;;;1.25;1.25;;;;;19.04;49.05;100687.78;5034131;28;45566;-68
2023/07/21 02:20:32;;;;;;;;;1.75;1.00;;;;;18.99;48.75;100689.88;5038677;28;69391;-68
2023/07/21 02:22:57;;;;;;;;;3.50;2.00;;;;;18.90;49.22;100686.00;5034827;28;72508;-68
2023/07/21 02:25:24;;;;;;;;;3.50;1.00;;;;;18.87;49.27;100688.84;5025043;28;45320;-68
2023/07/21 02:27:49;;;;;;;;;1.75;1.25;;;;;18.82;49.27;100693.56;5037769;28;45479;-68
2023/07/21 02:30:15;;;;;;;;;2.00;1.00;;;;;18.75;49.43;100699.25;5025921;28;65267;-68
2023/07/21 02:32:40;;;;;;;;;1.00;1.00;;;;;18.73;49.37;100687.00;5036346;28;45389;-68
2023/07/21 02:35:06;;;;;;;;;1.25;1.25;;;;;18.68;49.34;100689.09;5029875;28;45340;-68
2023/07/21 02:37:31;;;;;;;;;5.00;1.00;;;;;18.65;49.15;100694.59;5018909;28;45329;-67
2023/07/21 02:39:57;;;;;;;;;2.25;1.00;;;;;18.55;49.38;100687.19;5046729;28;45260;-68
2023/07/21 02:42:22;;;;;;;;;1.75;1.00;;;;;18.60;49.05;100686.91;5037121;28;53515;-67
2023/07/21 02:44:47;;;;;;;;;2.00;1.75;;;;;18.57;49.54;100687.97;5030975;28;46209;-68
2023/07/21 02:47:16;;;;;;;;;3.75;2.50;;;;;18.55;49.54;100696.94;5019575;28;67188;-68
2023/07/21 02:49:43;;;;;;;;;2.00;2.00;;;;;18.53;49.81;100690.91;5025944;28;45277;-68
2023/07/21 02:52:08;;;;;;;;;3.00;2.00;;;;;18.51;49.91;100683.03;5037884;28;46115;-68
2023/07/21 02:54:33;;;;;;;;;2.00;2.00;;;;;18.52;49.84;100684.75;5025696;28;45415;-68
2023/07/21 02:56:59;;;;;;;;;2.50;1.75;;;;;18.50;50.29;100689.28;5035720;28;48949;-68
2023/07/21 02:59:26;;;;;;;;;1.50;1.50;;;;;18.47;50.16;100691.25;5026180;28;45429;-68
2023/07/21 03:01:54;;;;;;;;;2.00;2.00;;;;;18.40;50.38;100688.16;5021929;28;47124;-67
2023/07/21 03:04:25;;;;;;;;;3.00;1.50;;;;;18.35;50.74;100693.72;5035969;28;45892;-67
2023/07/21 03:06:51;;;;;;;;;4.00;2.00;;;;;18.35;50.86;100695.50;5035428;28;45533;-67
2023/07/21 03:09:16;;;;;;;;;2.50;2.50;;;;;18.34;50.67;100692.03;5040694;28;45451;-67
2023/07/21 03:11:42;;;;;;;;;3.50;1.75;;;;;18.34;50.90;100692.03;5035534;28;46618;-68
2023/07/21 03:14:09;;;;;;;;;2.00;1.25;;;;;18.35;50.85;100695.50;5035655;28;45999;-68
2023/07/21 03:16:35;;;;;;;;;1.25;1.25;;;;;18.34;51.03;100694.66;5029240;28;45187;-68
2023/07/21 03:19:00;;;;;;;;;4.00;2.00;;;;;18.27;50.76;100680.06;5024571;28;45239;-67
2023/07/21 03:21:26;;;;;;;;;7.50;3.00;;;;;18.21;51.00;100677.78;5026396;28;71136;-68
2023/07/21 03:23:51;;;;;;;;;2.25;2.25;;;;;18.16;51.05;100682.50;5033283;28;65862;-68
2023/07/21 03:26:16;;;;;;;;;4.25;2.00;;;;;18.12;51.81;100689.78;5027089;28;62526;-67
2023/07/21 03:28:42;;;;;;;;;4.00;3.00;;;;;18.13;51.35;100702.09;5032697;28;72945;-68
2023/07/21 03:31:09;;;;;;;;;4.50;3.00;;;;;18.10;51.49;100686.38;5037774;28;69807;-68
2023/07/21 03:33:34;;;;;;;;;3.75;2.25;;;;;18.08;51.59;100685.63;5038025;28;45673;-67
2023/07/21 03:36:02;;;;;;;;;2.00;2.00;;;;;18.09;51.63;100691.78;5038634;28;45642;-67
2023/07/21 03:38:30;;;;;;;;;2.00;2.00;;;;;18.11;51.69;100696.00;5038068;28;45393;-68
2023/07/21 03:41:03;;;;;;;;;2.75;2.75;;;;;18.10;52.07;100689.03;5021761;28;47204;-68
2023/07/21 03:43:28;;;;;;;;;3.25;2.50;;;;;18.08;52.34;100682.97;5033077;28;45725;-68
2023/07/21 03:45:59;;;;;;;;;2.00;2.00;;;;;18.09;51.91;100684.66;5033452;28;51683;-68
2023/07/21 03:48:26;;;;;;;;;2.00;2.00;;;;;18.07;52.28;100680.41;5031818;28;45481;-68
2023/07/21 03:50:58;;;;;;;;;2.75;2.00;;;;;18.05;52.03;100680.50;5042907;28;46918;-68
2023/07/21 03:53:24;;;;;;;;;2.00;2.00;;;;;18.05;51.84;100696.38;5037793;28;45442;-68
2023/07/21 03:55:50;;;;;;;;;4.25;3.00;;;;;18.05;51.82;100701.69;5034785;28;45415;-68
2023/07/21 03:58:15;;;;;;;;;4.50;2.00;;;;;18.03;52.03;100716.81;5031977;28;68713;-68
2023/07/21 04:00:42;;;;;;;;;3.00;2.00;;;;;18.01;52.00;100708.97;5030359;28;47153;-68
2023/07/21 04:03:08;;;;;;;;;0.00;0.00;;;;;18.00;51.68;100707.25;5034334;28;45768;-68
2023/07/21 04:05:33;;;;;;;;;2.50;1.25;;;;;18.00;51.84;100706.41;5055624;28;45498;-68
2023/07/21 04:07:59;;;;;;;;;1.75;0.75;;;;;18.00;52.26;100701.94;5039672;28;59521;-68
2023/07/21 04:10:24;;;;;;;;;1.75;1.75;;;;;18.05;51.73;100701.69;5023241;28;46174;-68
2023/07/21 04:12:49;;;;;;;;;2.00;2.00;;;;;18.06;52.04;100705.19;5033517;28;69219;-69
2023/07/21 04:15:15;;;;;;;;;3.00;2.00;;;;;18.05;52.31;100706.13;5023001;28;45249;-68
2023/07/21 04:17:40;;;;;;;;;2.25;2.25;;;;;18.09;52.21;100718.25;5032887;28;69604;-68
2023/07/21 04:20:09;;;;;;;;;2.00;2.00;;;;;18.10;52.12;100707.56;5046162;28;73153;-69
2023/07/21 04:22:34;;;;;;;;;2.50;2.00;;;;;18.13;52.25;100711.81;5022786;28;46071;-68
2023/07/21 04:25:00;;;;;;;;;2.00;2.00;;;;;18.10;52.34;100702.28;5027344;28;51686;-68
2023/07/21 04:27:28;;;;;;;;;4.00;2.75;;;;;18.12;52.13;100699.53;5037620;28;58865;-68
2023/07/21 04:29:54;;;;;;;;;3.00;2.25;;;;;18.13;52.23;100718.00;5029560;28;45415;-68
2023/07/21 04:32:19;;;;;;;;;2.00;2.00;;;;;18.11;52.42;100708.41;5039292;28;45225;-67
2023/07/21 04:34:45;;;;;;;;;3.25;2.50;;;;;18.12;52.34;100700.38;5024343;28;62659;-67
2023/07/21 04:37:10;;;;;;;;;3.00;3.00;;;;;18.16;52.08;100712.50;5020384;28;67669;-68
2023/07/21 04:39:35;;;;;;;;;2.00;2.00;;;;;18.18;52.35;100712.41;5032917;28;45403;-68
2023/07/21 04:42:01;;;;;;;;;2.25;2.00;;;;;18.21;51.81;100715.72;5038380;28;47388;-68
2023/07/21 04:44:26;;;;;;;;;2.00;2.00;;;;;18.23;53.03;100710.34;5033250;28;45380;-68
2023/07/21 04:46:52;;;;;;;;;4.00;4.00;;;;;18.29;53.04;100706.47;5039840;28;51970;-68
2023/07/21 04:49:17;;;;;;;;;3.50;2.50;;;;;18.32;53.36;100704.47;5035001;28;58660;-68
2023/07/21 04:51:42;;;;;;;;;3.00;3.00;;;;;18.37;53.09;100698.91;5039370;28;45395;-68
2023/07/21 04:54:08;;;;;;;;;3.50;2.00;;;;;18.42;53.07;100691.53;5032452;28;47704;-69
2023/07/21 04:56:33;;;;;;;;;4.50;3.00;;;;;18.40;52.77;100691.63;5038974;28;45349;-69
2023/07/21 04:58:59;;;;;;;;;2.00;2.00;;;;;18.44;52.20;100700.25;5027960;28;47520;-67
2023/07/21 05:01:24;;;;;;;;;2.00;2.00;;;;;18.42;52.29;100688.91;5040472;28;47144;-67
2023/07/21 05:03:49;;;;;;;;;2.75;2.75;;;;;18.40;52.50;100681.03;5038088;28;45408;-67
2023/07/21 05:06:15;;;;;;;;;2.00;2.00;;;;;18.40;52.35;100688.16;5041836;28;45323;-68
2023/07/21 05:08:40;;;;;;;;;2.00;2.00;;;;;18.45;52.12;100685.19;5023562;28;47231;-67
2023/07/21 05:11:09;;;;;;;;;2.75;2.00;;;;;18.44;52.48;100679.06;5037229;28;45368;-67
2023/07/21 05:13:35;;;;;;;;;3.50;2.00;;;;;18.48;52.53;100680.56;5027624;28;45381;-67
2023/07/21 05:16:00;;;;;;;;;2.50;2.50;;;;;18.50;53.01;100680.47;5027944;28;45297;-68
2023/07/21 05:18:26;;;;;;;;;3.00;2.50;;;;;18.52;52.69;100671.50;5034851;28;48334;-67
2023/07/21 05:20:51;;;;;;;;;4.00;2.50;;;;;18.55;52.63;100681.03;5030833;28;45466;-67
2023/07/21 05:23:17;;;;;;;;;2.50;2.50;;;;;18.58;53.00;100700.25;5036449;28;58318;-68
2023/07/21 05:25:42;;;;;;;;;2.25;2.25;;;;;18.64;53.01;100700.84;5011534;28;45430;-68
2023/07/21 05:28:08;;;;;;;;;5.00;3.00;;;;;18.65;52.88;100695.44;5034871;28;46421;-67
2023/07/21 05:30:34;;;;;;;;;2.00;1.00;;;;;18.69;52.50;100704.91;5031806;28;45492;-67
2023/07/21 05:33:00;;;;;;;;;1.00;1.00;;;;;18.69;51.71;100704.06;5040016;28;45369;-68
2023/07/21 05:35:27;;;;;;;;;1.75;1.50;;;;;18.67;51.45;100698.84;5023604;28;45434;-68
2023/07/21 05:37:52;;;;;;;;;2.00;1.00;;;;;18.71;51.12;100686.25;5039853;28;45656;-68
2023/07/21 05:40:18;;;;;;;;;1.00;1.00;;;;;18.74;50.96;100696.69;5036760;28;45257;-68
2023/07/21 05:42:46;;;;;;;;;1.25;1.25;;;;;18.72;50.95;100699.41;5013453;28;45450;-68
2023/07/21 05:45:12;;;;;;;;;2.00;1.50;;;;;18.71;50.88;100688.91;5035421;28;45359;-68
2023/07/21 05:47:37;;;;;;;;;2.00;1.75;;;;;18.71;51.04;100675.66;5037176;28;59777;-68
2023/07/21 05:50:03;;;;;;;;;4.00;1.75;;;;;18.77;51.10;100686.72;5025847;28;61163;-68
2023/07/21 05:52:28;;;;;;;;;2.25;1.50;;;;;18.83;51.07;100682.88;5038883;28;45343;-67
2023/07/21 05:54:54;;;;;;;;;3.25;2.00;;;;;18.87;51.20;100694.97;5027172;28;45340;-67
2023/07/21 05:57:19;;;;;;;;;2.00;2.00;;;;;18.86;50.99;100693.28;5036651;28;46850;-67
2023/07/21 05:59:47;;;;;;;;;4.50;2.00;;;;;18.87;50.69;100696.78;5028143;28;65323;-68
2023/07/21 06:02:13;;;;;;;;;4.50;3.00;;;;;18.87;50.82;100702.09;5037211;28;45277;-68
2023/07/21 06:04:38;;;;;;;;;2.00;2.00;;;;;18.85;50.68;100704.84;5034440;28;67685;-68
2023/07/21 06:07:04;;;;;;;;;4.00;3.00;;;;;18.83;50.69;100703.25;5038997;28;65357;-68
2023/07/21 06:09:29;;;;;;;;;3.50;2.25;;;;;18.78;50.43;100708.78;5010962;28;45427;-68
2023/07/21 06:11:55;;;;;;;;;3.00;3.00;;;;;18.72;50.53;100710.03;5030316;28;46865;-67
2023/07/21 06:14:20;;;;;;;;;4.00;2.00;;;;;18.73;50.40;100714.38;5023815;28;45339;-69
2023/07/21 06:16:46;;;;;;;;;2.00;2.00;;;;;18.75;50.08;100711.63;5023105;28;46381;-67
2023/07/21 06:19:11;;;;;;;;;3.50;2.00;;;;;18.79;50.07;100711.34;5020488;28;45570;-67
2023/07/21 06:21:37;;;;;;;;;4.50;2.50;;;;;18.81;49.70;100700.66;5040942;28;45355;-67
2023/07/21 06:24:02;;;;;;;;;2.00;2.00;;;;;18.85;49.84;100696.88;5019118;28;45423;-67
2023/07/21 06:26:28;;;;;;;;;2.00;2.00;;;;;18.89;49.58;100698.41;5040442;28;46281;-68
2023/07/21 06:28:53;;;;;;;;;4.00;2.75;;;;;18.93;49.73;100710.53;5033650;28;45421;-67
2023/07/21 06:31:18;;;;;;;;;3.50;2.50;;;;;19.01;49.82;100706.53;5030826;28;52478;-68
2023/07/21 06:33:44;;;;;;;;;4.00;2.00;;;;;19.06;49.25;100707.94;5035654;28;45338;-68
2023/07/21 06:36:09;;;;;;;;;3.00;3.00;;;;;19.13;49.47;100714.56;5036345;28;72464;-68
2023/07/21 06:38:34;;;;;;;;;3.00;2.75;;;;;19.19;49.05;100723.09;5034428;28;68658;-67
2023/07/21 06:41:20;;;;;;;;;3.25;2.00;;;;;19.21;49.34;100727.38;5032599;28;45338;-68
2023/07/21 06:43:45;;;;;;;;;4.75;2.75;;;;;19.26;49.07;100727.06;5033240;28;45426;-68
2023/07/21 06:46:11;;;;;;;;;4.00;3.00;;;;;19.31;49.35;100722.31;5033666;28;60888;-68
2023/07/21 06:48:36;;;;;;;;;4.50;4.25;;;;;19.39;49.35;100724.47;5033164;28;57073;-68
2023/07/21 06:51:01;;;;;;;;;5.50;3.75;;;;;19.44;49.23;100727.69;5034661;28;60634;-68
2023/07/21 06:53:27;;;;;;;;;4.25;4.00;;;;;19.45;49.44;100714.31;5021558;28;54567;-68
2023/07/21 06:55:54;;;;;;;;;3.00;3.00;;;;;19.52;49.25;100714.78;5036285;28;46105;-68
2023/07/21 06:58:19;;;;;;;;;6.00;5.25;;;;;19.58;49.92;100710.84;5038286;28;45343;-68
2023/07/21 07:00:46;;;;;;;;;5.00;5.00;;;;;19.57;49.08;100706.53;5037245;28;52098;-68
2023/07/21 07:03:11;;;;;;;;;4.75;3.50;;;;;19.53;49.35;100708.53;5036702;28;45479;-68
2023/07/21 07:05:37;;;;;;;;;5.50;4.00;;;;;19.52;49.59;100715.63;5040008;28;46135;-68
2023/07/21 07:08:02;;;;;;;;;3.25;3.25;;;;;19.52;49.28;100709.47;5036426;28;71638;-68
2023/07/21 07:10:28;;;;;;;;;5.00;5.00;;;;;19.56;49.48;100704.81;5018674;28;68781;-68
2023/07/21 07:12:53;;;;;;;;;9.00;5.75;;;;;19.57;49.69;100706.53;5031829;28;45406;-67
2023/07/21 07:15:18;;;;;;;;;4.75;3.50;;;;;19.54;49.25;100708.41;5035328;28;47120;-68
2023/07/21 07:17:44;;;;;;;;;6.00;3.00;;;;;19.47;49.62;100711.56;5031357;28;64080;-68
2023/07/21 07:20:11;;;;;;;;;6.00;4.00;;;;;19.44;49.47;100715.28;5017133;28;45325;-68
2023/07/21 07:22:36;;;;;;;;;2.50;2.25;;;;;19.45;49.74;100716.13;5035264;28;45305;-69
2023/07/21 07:25:03;;;;;;;;;4.50;4.00;;;;;19.47;50.15;100716.88;5025526;28;46258;-68
2023/07/21 07:27:28;;;;;;;;;5.75;5.00;;;;;19.50;49.91;100719.34;5051508;28;45250;-68
2023/07/21 07:29:53;;;;;;;;;5.25;5.00;;;;;19.43;50.00;100718.03;5028068;28;66644;-68
2023/07/21 07:32:19;;;;;;;;;6.50;4.25;;;;;19.37;50.02;100727.25;5035230;28;67567;-68
2023/07/21 07:34:44;;;;;;;;;6.75;5.00;;;;;19.37;50.73;100729.03;5029390;28;65075;-67
2023/07/21 07:37:09;;;;;;;;;6.50;5.75;;;;;19.31;50.81;100720.50;5019779;28;45924;-67
2023/07/21 07:39:35;;;;;;;;;12.50;8.00;;;;;19.38;51.16;100723.63;5028464;28;60989;-67
2023/07/21 07:42:00;;;;;;;;;8.00;5.00;;;;;19.47;50.58;100725.69;5035803;28;45264;-68
2023/07/21 07:44:26;;;;;;;;;5.25;5.25;;;;;19.60;51.01;100724.88;5034251;28;60605;-68
2023/07/21 07:46:55;;;;;;;;;10.00;7.00;;;;;19.72;50.96;100727.63;5036601;28;45352;-68
2023/07/21 07:49:20;;;;;;;;;8.00;6.75;;;;;19.80;50.99;100734.25;5036058;28;45431;-67
2023/07/21 07:51:45;;;;;;;;;7.25;5.00;;;;;19.83;50.64;100729.59;5037351;28;68375;-66
2023/07/21 07:54:10;;;;;;;;;8.50;6.00;;;;;19.88;51.06;100726.59;5024360;28;61258;-67
2023/07/21 07:56:36;;;;;;;;;6.50;6.00;;;;;19.86;51.07;100740.00;5038031;28;45359;-68
2023/07/21 07:59:01;;;;;;;;;7.00;5.25;;;;;19.81;51.00;100735.94;5027412;28;45182;-68
2023/07/21 08:01:27;;;;;;;;;8.00;7.00;;;;;19.71;52.13;100736.50;5034624;28;45564;-68
2023/07/21 08:03:53;;;;;;;;;6.00;5.00;;;;;19.75;51.02;100742.50;5029447;28;46317;-68
2023/07/21 08:06:19;;;;;;;;;6.00;6.00;;;;;19.81;51.48;100746.56;5018066;28;45533;-68
2023/07/21 08:08:44;;;;;;;;;7.75;7.00;;;;;19.82;51.09;100746.47;5016264;28;45286;-68
2023/07/21 08:11:10;;;;;;;;;7.75;7.25;;;;;19.80;51.54;100744.88;5034665;28;45214;-67
2023/07/21 08:13:36;;;;;;;;;7.25;6.25;;;;;19.74;50.99;100751.41;5027528;28;54857;-68
2023/07/21 08:16:08;;;;;;;;;9.00;7.25;;;;;19.75;51.90;100750.47;5025356;28;45830;-68
2023/07/21 08:18:33;;;;;;;;;7.50;7.00;;;;;19.78;51.81;100757.38;5037828;28;45404;-68
2023/07/21 08:20:59;;;;;;;;;9.75;8.50;;;;;19.81;51.14;100754.53;5027731;28;45489;-68
2023/07/21 08:23:24;;;;;;;;;7.75;7.00;;;;;19.79;51.55;100753.78;5031962;28;63061;-68
2023/07/21 08:25:50;;;;;;;;;13.50;10.75;;;;;19.76;51.50;100748.66;5045499;28;45467;-68
2023/07/21 08:28:15;;;;;;;;;8.50;8.50;;;;;19.83;51.70;100766.78;5032711;28;46239;-68
2023/07/21 08:30:40;;;;;;;;;10.25;8.75;;;;;19.88;51.89;100761.13;5021540;28;59012;-68
2023/07/21 08:33:06;;;;;;;;;10.25;8.00;;;;;19.92;52.01;100757.34;5018048;28;46739;-68
2023/07/21 08:35:32;;;;;;;;;10.75;6.25;;;;;19.99;51.44;100756.00;5032588;28;45280;-68
2023/07/21 08:37:58;;;;;;;;;9.00;6.75;;;;;20.05;51.70;100760.88;5037417;28;45526;-68
2023/07/21 08:40:23;;;;;;;;;23.50;20.25;;;;;20.07;51.71;100758.13;5017539;28;45386;-68
2023/07/21 08:42:49;;;;;;;;;12.50;8.25;;;;;20.14;51.84;100753.25;5024376;28;45472;-68
2023/07/21 08:45:15;;;;;;;;;77.25;59.50;;;;;20.26;52.20;100752.44;5036455;28;45874;-68
2023/07/21 08:47:40;;;;;;;;;9.25;7.50;;;;;20.35;51.39;100749.16;5044294;28;45382;-68
2023/07/21 08:50:06;;;;;;;;;11.00;6.00;;;;;20.44;51.11;100753.00;5033723;28;48798;-68
2023/07/21 08:52:32;;;;;;;;;11.25;7.75;;;;;20.49;50.91;100757.03;5054907;28;47579;-68
2023/07/21 08:54:57;;;;;;;;;7.00;6.50;;;;;20.58;50.35;100760.88;5028885;28;45404;-68
2023/07/21 08:57:23;;;;;;;;;9.00;6.75;;;;;20.66;50.53;100758.56;5038715;28;52276;-68
2023/07/21 08:59:49;;;;;;;;;11.75;7.00;;;;;20.78;50.09;100764.00;5029018;28;65221;-68
2023/07/21 09:02:15;;;;;;;;;6.00;5.25;;;;;20.90;49.33;100760.47;5037956;28;46109;-68
2023/07/21 09:04:43;;;;;;;;;6.25;5.75;;;;;20.96;49.18;100749.38;5036976;28;45329;-68
2023/07/21 09:07:10;;;;;;;;;6.50;6.50;;;;;21.01;48.86;100762.38;5030666;28;45345;-68
2023/07/21 09:09:35;;;;;;;;;8.00;6.00;;;;;21.01;48.91;100754.41;5024026;28;45573;-68
2023/07/21 09:12:11;;;;;;;;;11.75;6.00;;;;;21.04;49.19;100765.66;5029308;28;48081;-68
2023/07/21 09:14:43;;;;;;;;;7.00;6.25;;;;;21.11;48.80;100751.94;5029742;28;45298;-69
2023/07/21 09:17:11;;;;;;;;;10.50;8.25;;;;;21.18;48.79;100756.72;5032214;28;45284;-68
2023/07/21 09:19:37;;;;;;;;;11.75;9.00;;;;;21.30;49.01;100748.81;5036059;28;45591;-69
2023/07/21 09:22:03;;;;;;;;;9.00;7.00;;;;;21.44;47.72;100753.97;5039532;28;46550;-69
2023/07/21 09:24:28;;;;;;;;;7.25;5.00;;;;;21.45;47.52;100746.88;5031464;28;45309;-67
2023/07/21 09:27:13;;;;;;;;;8.00;7.00;;;;;21.54;47.64;100754.22;5035107;28;45289;-67
2023/07/21 09:29:40;;;;;;;;;11.50;7.00;;;;;21.64;47.70;100754.38;5060356;28;45477;-67
2023/07/21 09:32:13;;;;;;;;;7.50;7.50;;;;;21.70;47.45;100754.78;5018262;28;48153;-67
2023/07/21 09:35:02;;;;;;;;;3.75;3.00;;;;;21.78;47.74;100754.22;5033803;28;45246;-67
2023/07/21 09:37:30;;;;;;;;;6.00;5.00;;;;;21.83;47.39;100749.38;5047266;28;45467;-67
2023/07/21 09:39:58;;;;;;;;;8.00;6.00;;;;;21.90;47.19;100742.66;5047389;28;45279;-67
2023/07/21 09:42:24;;;;;;;;;8.25;7.50;;;;;21.96;46.71;100760.00;5021575;28;47344;-67
2023/07/21 09:44:51;;;;;;;;;7.00;6.50;;;;;22.02;46.94;100753.34;5022717;28;45876;-67
2023/07/21 09:47:17;;;;;;;;;7.75;6.75;;;;;22.13;46.81;100761.38;5021450;28;45517;-68
2023/07/21 09:49:43;;;;;;;;;5.25;5.00;;;;;22.24;45.67;100747.25;5034155;28;45339;-68
2023/07/21 09:52:13;;;;;;;;;5.50;5.25;;;;;22.36;45.38;100754.34;5037134;28;46446;-67
2023/07/21 09:54:39;;;;;;;;;8.50;6.00;;;;;22.39;45.03;100742.59;5027430;28;45857;-67
2023/07/21 09:57:05;;;;;;;;;6.00;6.00;;;;;22.51;44.87;100752.34;5036814;28;45299;-67
2023/07/21 09:59:34;;;;;;;;;6.25;2.25;;;;;22.62;42.37;100755.00;5028582;28;45383;-67
2023/07/21 10:01:59;;;;;;;;;8.00;5.00;;;;;22.80;44.26;100757.22;5038320;28;45478;-67
2023/07/21 10:04:25;;;;;;;;;7.75;5.75;;;;;22.99;43.47;100754.78;5035525;28;70226;-67
2023/07/21 10:06:53;;;;;;;;;7.00;5.75;;;;;23.06;44.11;100753.38;5053440;28;45259;-67
2023/07/21 10:09:19;;;;;;;;;8.75;5.00;;;;;23.05;43.80;100762.34;5024729;28;45657;-68
2023/07/21 10:11:44;;;;;;;;;6.00;4.25;;;;;22.96;42.96;100760.38;5023028;28;47500;-68
2023/07/21 10:14:29;;;;;;;;;7.75;5.50;;;;;23.01;42.86;100757.34;5021520;28;45483;-67
2023/07/21 10:16:54;;;;;;;;;4.25;4.00;;;;;23.16;42.89;100768.66;5023828;28;45329;-67
2023/07/21 10:19:22;;;;;;;;;4.25;4.25;;;;;23.30;41.87;100763.06;5021332;28;74206;-67
2023/07/21 10:21:52;;;;;;;;;4.25;4.25;;;;;23.40;42.05;100757.84;5039445;28;45481;-68
2023/07/21 10:24:25;;;;;;;;;9.00;4.00;;;;;23.42;41.99;100759.38;5037361;28;45257;-67
2023/07/21 10:26:56;;;;;;;;;6.25;4.00;;;;;23.37;41.47;100758.91;5022808;28;45356;-68
2023/07/21 10:29:21;;;;;;;;;11.75;6.75;;;;;23.50;41.99;100758.78;5021386;28;45322;-68
2023/07/21 10:31:54;;;;;;;;;11.25;7.25;;;;;23.62;41.58;100756.91;5039800;28;73396;-69
2023/07/21 10:34:44;;;;;;;;;6.25;3.25;;;;;23.61;41.00;100752.56;5036780;28;45170;-68
2023/07/21 10:37:09;;;;;;;;;12.25;7.50;;;;;23.65;41.02;100754.84;5037734;28;45437;-67
2023/07/21 10:39:37;;;;;;;;;6.75;5.25;;;;;23.76;40.75;100762.00;5048203;28;45929;-68
2023/07/21 10:42:05;;;;;;;;;5.00;3.00;;;;;23.97;40.79;100759.38;5020498;28;47644;-68
2023/07/21 10:44:45;;;;;;;;;4.25;3.25;;;;;24.13;40.28;100758.09;5031646;28;45284;-67
2023/07/21 10:47:15;;;;;;;;;3.00;2.75;;;;;24.26;40.04;100758.78;5024096;28;45450;-68
2023/07/21 10:49:41;;;;;;;;;4.75;3.75;;;;;24.34;39.47;100748.28;5027330;28;45183;-68
2023/07/21 10:52:07;;;;;;;;;5.75;4.75;;;;;24.34;39.81;100747.44;5019211;28;47996;-67
2023/07/21 10:54:32;;;;;;;;;8.50;2.75;;;;;24.36;39.05;100759.69;5025723;28;45558;-67
2023/07/21 10:56:59;;;;;;;;;4.00;2.50;;;;;24.37;38.97;100757.88;5035279;28;45492;-68
2023/07/21 10:59:25;;;;;;;;;3.25;2.25;;;;;24.40;39.08;100749.56;5043385;28;46323;-68
2023/07/21 11:01:56;;;;;;;;;2.00;2.00;;;;;24.33;39.23;100751.94;5034990;28;65326;-68
2023/07/21 11:04:22;;;;;;;;;4.25;4.25;;;;;24.31;38.76;100751.22;5031173;28;45575;-68
2023/07/21 11:06:50;;;;;;;;;8.50;7.00;;;;;24.35;38.05;100762.50;5028754;28;45526;-68
2023/07/21 11:09:17;;;;;;;;;5.00;3.25;;;;;24.38;38.62;100749.72;5028328;28;45300;-68
2023/07/21 11:11:44;;;;;;;;;10.25;6.50;;;;;24.43;38.10;100752.00;5035461;28;47742;-68
2023/07/21 11:14:16;;;;;;;;;2.75;2.75;;;;;24.51;38.19;100751.34;5030356;28;45279;-68
2023/07/21 11:17:01;;;;;;;;;4.75;3.25;;;;;24.54;37.67;100757.31;5029881;28;45289;-68
2023/07/21 11:19:28;;;;;;;;;6.50;4.25;;;;;24.58;37.64;100752.56;5032800;28;45522;-68
2023/07/21 11:21:54;;;;;;;;;5.00;3.00;;;;;24.69;37.98;100744.44;5039579;28;45263;-68